Time;durP1;ratioP1;P1;durP2;ratioP2;P2;SDS_P1;SDS_P2;PMS_P1;PMS_P2;Temp;Humidity;BMP_temperature;BMP_pressure;BME280_temperature;BME280_humidity;BME280_pressure;Samples;Min_cycle;Max_cycle;Signal;HPM_P1;HPM_P2
2023/04/12 00:01:55;;;;;;;5.57;5.30;;;11.60;76.40;;;;;;5095627;28;20453;-79
2023/04/12 00:04:27;;;;;;;6.10;5.60;;;11.50;83.10;;;;;;5093430;28;20486;-80
2023/04/12 00:06:56;;;;;;;5.57;5.37;;;11.50;91.20;;;;;;5076835;28;20458;-79
2023/04/12 00:09:29;;;;;;;5.73;5.53;;;11.50;94.90;;;;;;5091988;28;20442;-80
2023/04/12 00:11:58;;;;;;;7.70;7.13;;;11.40;97.00;;;;;;5093042;28;20542;-80
2023/04/12 00:14:28;;;;;;;7.50;7.00;;;11.30;99.90;;;;;;5090986;28;20465;-83
2023/04/12 00:16:56;;;;;;;8.00;7.40;;;11.20;99.90;;;;;;5090465;28;20986;-82
2023/04/12 00:19:26;;;;;;;8.23;7.73;;;11.10;99.90;;;;;;5097033;28;21351;-80
2023/04/12 00:21:55;;;;;;;10.03;9.53;;;11.00;99.90;;;;;;5082735;28;20504;-81
2023/04/12 00:24:23;;;;;;;9.90;9.10;;;11.00;99.90;;;;;;5102270;27;20481;-81
2023/04/12 00:26:51;;;;;;;10.27;9.67;;;10.90;99.90;;;;;;5102026;28;20495;-82
2023/04/12 00:29:20;;;;;;;10.03;9.50;;;10.80;99.90;;;;;;5082728;28;20455;-81
2023/04/12 00:31:49;;;;;;;10.60;9.90;;;10.80;99.90;;;;;;5103199;28;20466;-81
2023/04/12 00:34:17;;;;;;;10.50;10.03;;;10.80;99.90;;;;;;5102467;27;20505;-82
2023/04/12 00:36:45;;;;;;;10.60;10.20;;;10.70;99.90;;;;;;5101985;28;20540;-82
2023/04/12 00:39:13;;;;;;;12.30;11.47;;;10.70;99.90;;;;;;5105377;27;20469;-81
2023/04/12 00:41:41;;;;;;;10.40;10.00;;;10.80;99.90;;;;;;5108146;28;20456;-82
2023/04/12 00:44:10;;;;;;;10.10;9.60;;;10.70;99.90;;;;;;5103407;27;20531;-82
2023/04/12 00:46:38;;;;;;;10.70;10.03;;;10.60;99.90;;;;;;5099796;28;20500;-81
2023/04/12 00:49:07;;;;;;;9.90;9.50;;;10.60;1.00;;;;;;5099443;27;20445;-82
2023/04/12 00:51:36;;;;;;;10.27;9.87;;;10.50;1.00;;;;;;5101045;28;20461;-80
2023/04/12 00:54:06;;;;;;;9.80;9.50;;;10.60;1.00;;;;;;5084125;28;20986;-80
2023/04/12 00:56:35;;;;;;;10.37;9.97;;;10.60;1.00;;;;;;5097762;28;20961;-82
2023/04/12 00:59:04;;;;;;;10.20;9.80;;;10.50;1.00;;;;;;5098673;28;20461;-82
2023/04/12 01:01:32;;;;;;;10.60;10.13;;;10.50;1.00;;;;;;5102260;27;20462;-82
2023/04/12 01:04:03;;;;;;;10.83;10.20;;;10.50;1.00;;;;;;5102306;27;20667;-81
2023/04/12 01:07:02;;;;;;;10.20;9.70;;;10.50;1.00;;;;;;5092089;27;20461;-81
2023/04/12 01:09:36;;;;;;;10.47;10.07;;;10.40;1.00;;;;;;5095877;27;20468;-80
2023/04/12 01:12:16;;;;;;;10.50;10.00;;;10.50;30.00;;;;;;5093370;28;20488;-80
2023/04/12 01:14:51;;;;;;;10.80;10.13;;;10.50;1.00;;;;;;5096463;28;20473;-80
2023/04/12 01:17:26;;;;;;;11.40;10.70;;;10.60;70.50;;;;;;5096197;28;20442;-81
2023/04/12 01:19:59;;;;;;;11.77;11.03;;;10.50;99.90;;;;;;5082024;28;21358;-79
2023/04/12 01:22:51;;;;;;;11.73;10.57;;;10.50;99.90;;;;;;5095541;28;20460;-83
2023/04/12 01:25:33;;;;;;;10.63;10.33;;;10.50;99.90;;;;;;5098013;28;20479;-81
2023/04/12 01:28:04;;;;;;;11.40;10.90;;;10.40;99.90;;;;;;5092203;27;20442;-81
2023/04/12 01:30:33;;;;;;;11.10;10.70;;;10.40;99.90;;;;;;5080001;28;20749;-81
2023/04/12 01:33:05;;;;;;;12.20;11.40;;;10.40;99.90;;;;;;5096879;28;20449;-81
2023/04/12 01:35:34;;;;;;;11.23;10.80;;;10.20;1.00;;;;;;5096272;28;20476;-80
2023/04/12 01:38:04;;;;;;;11.20;10.77;;;10.20;1.00;;;;;;5094902;27;20453;-82
2023/04/12 01:40:32;;;;;;;11.60;11.00;;;10.20;1.00;;;;;;5096494;28;20456;-81
2023/04/12 01:43:10;;;;;;;11.30;10.80;;;10.20;1.00;;;;;;5096755;28;20447;-83
2023/04/12 01:45:39;;;;;;;11.53;11.10;;;10.20;1.00;;;;;;5096865;28;20480;-82
2023/04/12 01:48:09;;;;;;;11.10;10.60;;;10.20;1.00;;;;;;5094495;28;20506;-82
2023/04/12 01:50:44;;;;;;;11.60;10.90;;;10.20;1.00;;;;;;5079499;28;20563;-82
2023/04/12 01:53:18;;;;;;;11.60;11.20;;;10.20;99.90;;;;;;5096275;28;20541;-82
2023/04/12 01:55:48;;;;;;;11.17;10.73;;;10.10;90.20;;;;;;5102101;28;20472;-84
2023/04/12 01:58:23;;;;;;;11.43;10.93;;;10.10;99.90;;;;;;5099048;27;20454;-83
2023/04/12 02:00:54;;;;;;;12.00;11.40;;;10.20;99.90;;;;;;5098252;28;21021;-81
2023/04/12 02:03:24;;;;;;;11.77;11.47;;;10.20;99.90;;;;;;5098482;28;20544;-83
2023/04/12 02:05:53;;;;;;;12.47;11.83;;;10.20;99.90;;;;;;5100817;28;20466;-83
2023/04/12 02:08:21;;;;;;;12.20;11.67;;;10.10;99.90;;;;;;5102078;28;20454;-81
2023/04/12 02:10:50;;;;;;;12.20;11.60;;;10.10;99.90;;;;;;5093699;28;20934;-83
2023/04/12 02:13:19;;;;;;;12.17;11.63;;;10.10;99.90;;;;;;5104257;27;20453;-81
2023/04/12 02:15:47;;;;;;;11.53;11.13;;;10.10;1.00;;;;;;5097453;28;20538;-83
2023/04/12 02:18:16;;;;;;;12.63;12.03;;;10.10;1.00;;;;;;5077504;28;20449;-81
2023/04/12 02:20:44;;;;;;;12.20;11.60;;;10.00;1.00;;;;;;5097739;28;20655;-82
2023/04/12 02:23:12;;;;;;;12.27;11.77;;;10.00;99.90;;;;;;5096423;28;20483;-82
2023/04/12 02:25:41;;;;;;;11.97;11.47;;;10.00;99.90;;;;;;5099378;28;20508;-80
2023/04/12 02:28:09;;;;;;;12.30;11.63;;;10.10;99.90;;;;;;5097450;28;20469;-82
2023/04/12 02:30:40;;;;;;;12.03;11.63;;;10.10;99.90;;;;;;5098910;28;20507;-83
2023/04/12 02:33:08;;;;;;;12.33;11.83;;;10.10;99.90;;;;;;5100746;28;20452;-81
2023/04/12 02:35:36;;;;;;;12.77;12.23;;;10.00;99.90;;;;;;5094850;28;20477;-80
2023/04/12 02:38:07;;;;;;;11.87;11.50;;;10.00;1.00;;;;;;5099437;28;20460;-82
2023/04/12 02:40:39;;;;;;;12.07;11.57;;;10.00;1.00;;;;;;5100742;28;20491;-82
2023/04/12 02:43:08;;;;;;;12.80;12.40;;;10.10;99.90;;;;;;5101497;28;20457;-83
2023/04/12 02:45:36;;;;;;;11.80;11.40;;;10.10;99.90;;;;;;5102159;28;20531;-83
2023/04/12 02:48:06;;;;;;;12.47;12.07;;;10.10;1.00;;;;;;5103261;28;20440;-83
2023/04/12 02:50:34;;;;;;;12.30;11.70;;;10.00;1.00;;;;;;5083956;28;20454;-83
2023/04/12 02:53:02;;;;;;;12.93;12.00;;;10.00;1.00;;;;;;5106182;28;20537;-83
2023/04/12 02:55:30;;;;;;;12.20;11.80;;;10.00;18.70;;;;;;5105014;28;20495;-82
2023/04/12 02:57:58;;;;;;;12.00;11.50;;;10.00;99.90;;;;;;5097560;28;20445;-81
2023/04/12 03:00:26;;;;;;;12.43;12.03;;;10.00;99.90;;;;;;5101369;28;20963;-84
2023/04/12 03:02:57;;;;;;;12.40;11.63;;;10.10;1.00;;;;;;5097717;28;20494;-83
2023/04/12 03:05:27;;;;;;;13.03;12.23;;;10.00;1.00;;;;;;5100463;28;20487;-82
2023/04/12 03:07:55;;;;;;;12.17;11.70;;;10.00;99.90;;;;;;5100892;28;20465;-81
2023/04/12 03:10:23;;;;;;;12.87;12.30;;;9.90;1.00;;;;;;5100290;28;20445;-81
2023/04/12 03:12:51;;;;;;;12.87;12.30;;;9.90;1.00;;;;;;5101988;28;20973;-83
2023/04/12 03:15:22;;;;;;;12.40;12.00;;;9.90;99.90;;;;;;5099723;28;21333;-85
2023/04/12 03:17:50;;;;;;;12.30;11.60;;;10.00;99.90;;;;;;5103036;28;20463;-82
2023/04/12 03:20:19;;;;;;;12.10;11.80;;;10.00;1.00;;;;;;5098979;28;20465;-84
2023/04/12 03:22:48;;;;;;;13.13;12.43;;;10.00;99.90;;;;;;5102695;28;20445;-83
2023/04/12 03:25:17;;;;;;;12.30;11.80;;;10.00;99.90;;;;;;5100852;28;20448;-83
2023/04/12 03:27:46;;;;;;;12.37;11.87;;;10.00;1.00;;;;;;5081848;28;20450;-85
2023/04/12 03:30:14;;;;;;;12.53;12.13;;;10.00;99.90;;;;;;5098307;28;20461;-81
2023/04/12 03:32:42;;;;;;;12.47;12.00;;;10.00;99.90;;;;;;5098276;28;20445;-81
2023/04/12 03:35:11;;;;;;;12.07;11.67;;;9.90;1.00;;;;;;5098212;28;20524;-82
2023/04/12 03:37:42;;;;;;;12.00;11.70;;;9.90;1.00;;;;;;5098163;28;20987;-83
2023/04/12 03:40:12;;;;;;;11.93;11.57;;;9.90;99.90;;;;;;5096118;28;20195;-82
2023/04/12 03:42:40;;;;;;;11.73;11.43;;;10.00;1.00;;;;;;5101533;28;20883;-82
2023/04/12 03:45:09;;;;;;;12.43;11.97;;;9.90;99.00;;;;;;5095535;28;20481;-82
2023/04/12 03:47:37;;;;;;;12.43;12.03;;;9.90;1.00;;;;;;5097668;28;20453;-83
2023/04/12 03:50:07;;;;;;;12.00;11.63;;;9.90;42.40;;;;;;5096144;28;20448;-81
2023/04/12 03:52:39;;;;;;;11.77;11.47;;;9.90;1.00;;;;;;5100712;28;20481;-82
2023/04/12 03:55:08;;;;;;;12.50;12.10;;;9.90;99.90;;;;;;5099079;28;20476;-81
2023/04/12 03:57:37;;;;;;;12.33;11.93;;;9.90;99.90;;;;;;5105892;28;20980;-84
2023/04/12 04:00:08;;;;;;;12.03;11.63;;;9.90;99.90;;;;;;5101491;27;20490;-85
2023/04/12 04:02:37;;;;;;;11.80;11.40;;;9.90;99.90;;;;;;5099951;27;20922;-82
2023/04/12 04:05:06;;;;;;;11.60;11.30;;;9.90;1.00;;;;;;5104520;28;20477;-82
2023/04/12 04:07:35;;;;;;;11.90;11.60;;;9.90;86.60;;;;;;5105946;28;20452;-84
2023/04/12 04:10:05;;;;;;;12.20;11.73;;;9.90;1.00;;;;;;5106337;28;21212;-84
2023/04/12 04:12:33;;;;;;;12.40;12.10;;;9.80;1.00;;;;;;5091246;28;20538;-84
2023/04/12 04:15:03;;;;;;;13.07;12.07;;;9.80;1.00;;;;;;5102237;28;20460;-82
2023/04/12 04:17:31;;;;;;;12.57;12.07;;;9.80;99.90;;;;;;5089359;28;20460;-83
2023/04/12 04:19:59;;;;;;;13.03;12.53;;;9.80;1.00;;;;;;5104487;28;20483;-80
2023/04/12 04:22:28;;;;;;;13.07;12.57;;;9.70;1.00;;;;;;5083608;28;20466;-82
2023/04/12 04:24:57;;;;;;;12.40;12.10;;;9.80;1.00;;;;;;5102588;28;20474;-83
2023/04/12 04:27:29;;;;;;;13.17;12.77;;;9.80;93.80;;;;;;5102211;28;20461;-83
2023/04/12 04:29:58;;;;;;;12.97;12.60;;;9.80;1.00;;;;;;5103004;27;20464;-83
2023/04/12 04:32:27;;;;;;;13.27;12.70;;;9.70;99.90;;;;;;5106834;28;20472;-81
2023/04/12 04:34:58;;;;;;;13.37;12.97;;;9.70;1.00;;;;;;5097682;28;21000;-81
2023/04/12 04:37:26;;;;;;;13.23;12.83;;;9.80;99.90;;;;;;5100659;28;20480;-83
2023/04/12 04:39:55;;;;;;;13.00;12.60;;;9.80;99.90;;;;;;5102749;28;20823;-83
2023/04/12 04:42:23;;;;;;;12.67;12.10;;;9.80;99.90;;;;;;5102954;28;21271;-82
2023/04/12 04:44:51;;;;;;;12.53;12.23;;;9.80;99.90;;;;;;5105826;28;20475;-83
2023/04/12 04:47:21;;;;;;;13.50;12.90;;;9.80;51.50;;;;;;5100975;27;20446;-80
2023/04/12 04:49:50;;;;;;;13.63;12.93;;;9.70;99.90;;;;;;5083903;28;20993;-81
2023/04/12 04:52:19;;;;;;;13.30;12.90;;;9.70;99.90;;;;;;5098287;28;20509;-82
2023/04/12 04:54:47;;;;;;;13.93;13.53;;;9.60;99.90;;;;;;5101444;28;21013;-82
2023/04/12 04:57:15;;;;;;;13.60;13.20;;;9.60;1.00;;;;;;5103262;28;20898;-83
2023/04/12 04:59:43;;;;;;;13.23;12.83;;;9.70;99.90;;;;;;5104865;28;20448;-83
2023/04/12 05:02:11;;;;;;;13.00;12.60;;;9.60;1.00;;;;;;5102841;28;20478;-81
2023/04/12 05:04:40;;;;;;;12.80;12.40;;;9.70;1.00;;;;;;5101093;28;22246;-82
2023/04/12 05:07:09;;;;;;;13.00;12.70;;;9.60;99.90;;;;;;5103076;28;20461;-81
2023/04/12 05:09:38;;;;;;;13.37;12.97;;;9.70;99.90;;;;;;5101447;28;20541;-81
2023/04/12 05:12:06;;;;;;;12.83;12.53;;;9.70;99.90;;;;;;5098635;28;21019;-82
2023/04/12 05:14:34;;;;;;;12.90;12.50;;;9.80;99.90;;;;;;5101702;28;20499;-82
2023/04/12 05:17:14;;;;;;;12.90;12.57;;;9.70;99.90;;;;;;5101514;28;20892;-81
2023/04/12 05:19:43;;;;;;;13.20;12.80;;;9.80;99.90;;;;;;5098122;28;20466;-83
2023/04/12 05:22:13;;;;;;;12.63;12.30;;;9.70;1.00;;;;;;5097980;28;21045;-81
2023/04/12 05:24:41;;;;;;;13.10;12.80;;;9.70;1.00;;;;;;5099950;28;20469;-81
2023/04/12 05:27:09;;;;;;;13.20;12.80;;;9.70;1.00;;;;;;5101698;28;20457;-82
2023/04/12 05:29:37;;;;;;;13.40;13.00;;;9.70;59.60;;;;;;5098062;28;20471;-82
2023/04/12 05:32:06;;;;;;;12.87;12.57;;;9.60;29.70;;;;;;5099074;28;20488;-81
2023/04/12 05:34:34;;;;;;;13.10;12.70;;;9.60;1.00;;;;;;5101762;27;20523;-82
2023/04/12 05:37:02;;;;;;;13.33;12.83;;;9.60;99.90;;;;;;5100398;28;20578;-81
2023/04/12 05:39:33;;;;;;;13.30;12.90;;;9.60;99.90;;;;;;5099381;28;20970;-82
2023/04/12 05:42:01;;;;;;;13.20;12.80;;;9.60;99.90;;;;;;5101306;28;20617;-80
2023/04/12 05:44:29;;;;;;;12.90;12.50;;;9.60;1.00;;;;;;5098569;28;20515;-79
2023/04/12 05:46:57;;;;;;;13.57;13.03;;;9.70;1.00;;;;;;5099434;28;20629;-79
2023/04/12 05:49:29;;;;;;;13.27;12.90;;;9.70;99.90;;;;;;5095016;27;20554;-80
2023/04/12 05:51:57;;;;;;;12.90;12.60;;;9.60;1.00;;;;;;5091832;28;20460;-80
2023/04/12 05:54:25;;;;;;;12.53;12.17;;;9.40;1.00;;;;;;5092345;28;21009;-81
2023/04/12 05:56:55;;;;;;;13.10;12.70;;;9.30;1.00;;;;;;5097855;28;20518;-80
2023/04/12 05:59:24;;;;;;;13.77;13.30;;;9.40;1.00;;;;;;5079872;28;21004;-81
2023/04/12 06:01:52;;;;;;;13.47;13.07;;;9.60;1.00;;;;;;5091077;28;20537;-80
2023/04/12 06:04:21;;;;;;;13.00;12.70;;;9.50;1.00;;;;;;5097157;28;20488;-82
2023/04/12 06:06:50;;;;;;;13.20;12.80;;;9.70;1.00;;;;;;5102479;28;20445;-83
2023/04/12 06:09:18;;;;;;;13.30;13.00;;;9.70;1.00;;;;;;5106106;28;20493;-81
2023/04/12 06:11:46;;;;;;;13.00;12.63;;;9.80;99.90;;;;;;5106234;28;21115;-83
2023/04/12 06:14:15;;;;;;;12.87;12.57;;;9.80;1.00;;;;;;5106942;28;20452;-83
2023/04/12 06:16:44;;;;;;;12.97;12.67;;;9.70;99.90;;;;;;5106598;28;20468;-84
2023/04/12 06:19:12;;;;;;;13.23;12.73;;;9.70;1.00;;;;;;5106749;28;21225;-84
2023/04/12 06:21:41;;;;;;;12.57;12.27;;;9.90;1.00;;;;;;5111301;28;20471;-83
2023/04/12 06:24:09;;;;;;;13.53;13.13;;;9.80;99.90;;;;;;5104404;28;20523;-83
2023/04/12 06:26:37;;;;;;;12.77;12.37;;;9.80;1.00;;;;;;5100831;28;21213;-81
2023/04/12 06:29:07;;;;;;;12.70;12.30;;;9.80;99.90;;;;;;5109268;27;20449;-83
2023/04/12 06:31:36;;;;;;;12.70;12.40;;;9.80;1.00;;;;;;5096598;28;20694;-82
2023/04/12 06:34:05;;;;;;;13.37;12.83;;;9.80;99.90;;;;;;5100667;28;20536;-83
2023/04/12 06:36:33;;;;;;;13.20;12.80;;;9.70;1.00;;;;;;5103260;28;20456;-84
2023/04/12 06:39:02;;;;;;;13.30;12.80;;;9.80;99.90;;;;;;5105439;28;20450;-84
2023/04/12 06:41:30;;;;;;;13.67;13.17;;;9.90;99.90;;;;;;5112638;28;20460;-85
2023/04/12 06:43:58;;;;;;;13.10;12.70;;;9.80;99.90;;;;;;5089653;28;20560;-80
2023/04/12 06:46:27;;;;;;;13.50;13.10;;;9.80;99.90;;;;;;5103907;28;20446;-81
2023/04/12 06:48:56;;;;;;;13.40;12.93;;;9.90;99.90;;;;;;5106796;28;20453;-85
2023/04/12 06:51:25;;;;;;;13.50;13.00;;;9.90;99.90;;;;;;5095494;28;20481;-84
2023/04/12 06:53:55;;;;;;;13.43;13.03;;;10.00;99.90;;;;;;5108718;28;20475;-84
2023/04/12 06:56:23;;;;;;;13.90;13.50;;;10.00;1.00;;;;;;5114380;28;20472;-85
2023/04/12 06:58:51;;;;;;;12.90;12.50;;;10.00;92.30;;;;;;5114009;28;20454;-82
2023/04/12 07:01:19;;;;;;;13.60;13.20;;;9.90;99.90;;;;;;5111374;28;20442;-85
2023/04/12 07:03:47;;;;;;;13.50;13.00;;;9.90;99.90;;;;;;5114162;28;20536;-83
2023/04/12 07:06:17;;;;;;;13.60;13.20;;;10.10;99.90;;;;;;5111071;28;20491;-81
2023/04/12 07:08:52;;;;;;;13.57;12.80;;;10.10;99.90;;;;;;5109967;28;20462;-81
2023/04/12 07:11:22;;;;;;;13.67;13.30;;;10.10;1.00;;;;;;5113036;28;20465;-84
2023/04/12 07:13:51;;;;;;;13.50;13.10;;;10.10;1.00;;;;;;5106903;28;20488;-79
2023/04/12 07:16:19;;;;;;;13.87;13.30;;;10.00;99.90;;;;;;5106757;28;20484;-82
2023/04/12 07:18:48;;;;;;;13.77;13.37;;;10.00;99.90;;;;;;5090852;28;20562;-82
2023/04/12 07:21:17;;;;;;;14.27;13.87;;;10.10;99.90;;;;;;5105314;28;20464;-80
2023/04/12 07:23:49;;;;;;;14.10;13.50;;;10.20;99.90;;;;;;5100786;28;20472;-81
2023/04/12 07:26:18;;;;;;;14.00;13.50;;;10.20;99.90;;;;;;5104978;28;20469;-83
2023/04/12 07:28:46;;;;;;;13.97;13.50;;;10.30;1.00;;;;;;5106073;27;20908;-82
2023/04/12 07:31:15;;;;;;;14.23;13.73;;;10.30;60.10;;;;;;5101323;27;20451;-80
2023/04/12 07:33:43;;;;;;;14.00;13.70;;;10.30;99.90;;;;;;5083775;28;20837;-78
2023/04/12 07:36:12;;;;;;;13.93;13.63;;;10.30;99.90;;;;;;5111449;27;20483;-81
2023/04/12 07:38:42;;;;;;;15.30;14.80;;;10.40;99.90;;;;;;5109920;27;20811;-79
2023/04/12 07:41:10;;;;;;;15.13;14.63;;;10.40;99.90;;;;;;5110659;28;20460;-79
2023/04/12 07:43:38;;;;;;;14.20;13.90;;;10.50;99.90;;;;;;5113496;27;20597;-80
2023/04/12 07:46:07;;;;;;;14.93;14.43;;;10.50;1.00;;;;;;5108229;27;20541;-79
2023/04/12 07:48:36;;;;;;;16.00;15.50;;;10.50;99.90;;;;;;5110883;27;20447;-80
2023/04/12 07:51:05;;;;;;;15.50;15.00;;;10.60;99.90;;;;;;5107602;28;20470;-80
2023/04/12 07:53:33;;;;;;;15.17;14.70;;;10.60;1.00;;;;;;5108728;27;20451;-80
2023/04/12 07:56:05;;;;;;;14.93;14.47;;;10.60;99.90;;;;;;5110660;27;20473;-79
2023/04/12 07:58:34;;;;;;;15.53;15.03;;;10.70;99.90;;;;;;5104236;27;20460;-83
2023/04/12 08:01:02;;;;;;;14.90;14.50;;;10.80;99.90;;;;;;5106924;28;20452;-80
2023/04/12 08:03:30;;;;;;;15.30;14.50;;;10.80;99.90;;;;;;5113079;27;20485;-80
2023/04/12 08:05:59;;;;;;;15.60;15.10;;;10.90;1.00;;;;;;5111676;28;20496;-82
2023/04/12 08:08:27;;;;;;;15.50;14.97;;;10.90;99.90;;;;;;5107323;28;21256;-81
2023/04/12 08:10:56;;;;;;;15.53;15.03;;;10.80;1.00;;;;;;5113247;27;20506;-82
2023/04/12 08:13:26;;;;;;;15.63;15.13;;;10.80;1.00;;;;;;5111236;27;21380;-82
2023/04/12 08:15:54;;;;;;;107.97;68.23;;;10.80;99.90;;;;;;5114968;28;21060;-83
2023/04/12 08:18:23;;;;;;;17.83;16.93;;;10.80;1.00;;;;;;5118545;27;21143;-80
2023/04/12 08:20:51;;;;;;;18.53;17.53;;;10.80;99.90;;;;;;5116162;28;20441;-80
2023/04/12 08:23:20;;;;;;;16.00;15.40;;;10.90;42.00;;;;;;5114398;28;20479;-85
2023/04/12 08:25:48;;;;;;;16.20;15.70;;;11.00;99.90;;;;;;5117537;28;20472;-79
2023/04/12 08:28:16;;;;;;;16.00;15.50;;;11.00;99.90;;;;;;5112894;27;20874;-79
2023/04/12 08:30:46;;;;;;;16.20;15.70;;;11.10;99.90;;;;;;5107012;28;20454;-81
2023/04/12 08:33:14;;;;;;;16.60;15.90;;;11.20;99.90;;;;;;5113078;27;20466;-82
2023/04/12 08:35:42;;;;;;;15.73;15.23;;;11.20;99.90;;;;;;5093074;28;20487;-83
2023/04/12 08:38:11;;;;;;;15.77;15.20;;;11.20;99.90;;;;;;5105797;28;20494;-79
2023/04/12 08:40:42;;;;;;;15.97;15.40;;;11.20;99.90;;;;;;5100617;28;20546;-80
2023/04/12 08:43:12;;;;;;;16.07;15.57;;;11.20;99.90;;;;;;5097632;28;20454;-80
2023/04/12 08:45:40;;;;;;;16.27;15.67;;;11.30;1.00;;;;;;5109545;27;20862;-82
2023/04/12 08:48:11;;;;;;;15.87;15.27;;;11.30;99.90;;;;;;5100581;28;20451;-83
2023/04/12 08:50:41;;;;;;;15.83;15.33;;;11.20;99.90;;;;;;5105241;28;20447;-82
2023/04/12 08:53:11;;;;;;;15.93;15.43;;;11.30;1.00;;;;;;5110333;28;20461;-81
2023/04/12 08:55:39;;;;;;;16.40;15.90;;;11.10;99.90;;;;;;5109064;28;20533;-82
2023/04/12 08:58:09;;;;;;;15.90;15.50;;;11.20;99.90;;;;;;5111615;28;20472;-83
2023/04/12 09:00:38;;;;;;;15.70;15.30;;;11.20;99.90;;;;;;5109148;28;21029;-81
2023/04/12 09:03:06;;;;;;;17.77;17.07;;;11.20;99.90;;;;;;5095302;28;20459;-80
2023/04/12 09:05:36;;;;;;;17.33;16.63;;;11.30;1.00;;;;;;5109700;27;21029;-82
2023/04/12 09:08:05;;;;;;;17.07;16.40;;;11.20;99.90;;;;;;5112706;28;20532;-81
2023/04/12 09:10:35;;;;;;;16.20;15.73;;;11.20;39.20;;;;;;5107087;28;20449;-82
2023/04/12 09:13:04;;;;;;;16.97;16.40;;;11.20;1.00;;;;;;5105786;28;20459;-81
2023/04/12 09:15:33;;;;;;;17.10;16.40;;;11.30;1.00;;;;;;5105753;28;20528;-80
2023/04/12 09:18:06;;;;;;;16.70;16.20;;;11.40;99.90;;;;;;5106538;28;20914;-81
2023/04/12 09:20:37;;;;;;;16.77;16.20;;;11.30;99.90;;;;;;5101269;28;20515;-80
2023/04/12 09:23:18;;;;;;;16.83;16.23;;;11.30;1.00;;;;;;5110772;28;20456;-82
2023/04/12 09:25:50;;;;;;;16.67;16.17;;;11.40;1.00;;;;;;5107395;28;20466;-80
2023/04/12 09:28:21;;;;;;;17.67;16.80;;;11.40;1.00;;;;;;5106542;28;20454;-81
2023/04/12 09:30:51;;;;;;;17.10;16.50;;;11.40;1.00;;;;;;5088447;28;21080;-80
2023/04/12 09:33:21;;;;;;;17.10;16.50;;;11.30;1.00;;;;;;5100815;28;20473;-81
2023/04/12 09:35:50;;;;;;;16.67;16.07;;;11.40;99.90;;;;;;5114942;28;20474;-80
2023/04/12 09:38:19;;;;;;;17.07;16.37;;;11.50;99.90;;;;;;5105943;28;20449;-81
2023/04/12 09:40:48;;;;;;;17.23;16.63;;;11.60;1.00;;;;;;5103077;28;20461;-81
2023/04/12 09:43:17;;;;;;;17.57;16.87;;;11.50;1.00;;;;;;5100538;28;20454;-80
2023/04/12 09:45:45;;;;;;;17.77;17.17;;;11.60;1.00;;;;;;5099128;28;20474;-82
2023/04/12 09:48:20;;;;;;;17.80;17.20;;;11.60;1.00;;;;;;5097719;28;20535;-81
2023/04/12 09:51:00;;;;;;;17.27;16.57;;;11.60;99.90;;;;;;5095867;28;20437;-81
2023/04/12 09:53:28;;;;;;;17.73;17.13;;;11.70;99.90;;;;;;5096562;28;20461;-82
2023/04/12 09:55:59;;;;;;;17.50;16.80;;;11.70;99.90;;;;;;5104162;28;20471;-82
2023/04/12 09:58:27;;;;;;;18.00;17.40;;;11.80;99.90;;;;;;5102721;28;20452;-79
2023/04/12 10:01:02;;;;;;;18.00;17.40;;;11.80;1.00;;;;;;5086939;28;20470;-80
2023/04/12 10:03:30;;;;;;;18.87;18.07;;;12.00;48.20;;;;;;5109865;28;20459;-81
2023/04/12 10:06:01;;;;;;;18.13;17.50;;;12.10;99.90;;;;;;5105562;28;20512;-82
2023/04/12 10:08:30;;;;;;;18.03;17.43;;;12.10;99.90;;;;;;5105788;28;20505;-82
2023/04/12 10:10:58;;;;;;;18.90;18.20;;;12.10;1.00;;;;;;5113969;27;20451;-84
2023/04/12 10:13:27;;;;;;;17.60;17.10;;;12.20;1.00;;;;;;5093535;28;20529;-79
2023/04/12 10:15:55;;;;;;;18.27;17.67;;;12.10;1.00;;;;;;5108198;28;20474;-81
2023/04/12 10:18:25;;;;;;;17.40;16.87;;;12.20;99.90;;;;;;5110297;28;20556;-80
2023/04/12 10:20:54;;;;;;;16.97;16.30;;;12.00;1.00;;;;;;5108812;28;20450;-81
2023/04/12 10:23:24;;;;;;;17.97;17.27;;;12.10;99.90;;;;;;5108167;28;20524;-81
2023/04/12 10:25:52;;;;;;;17.20;16.60;;;12.10;67.60;;;;;;5105945;28;20475;-79
2023/04/12 10:28:22;;;;;;;18.27;17.27;;;12.10;1.00;;;;;;5108570;28;20473;-81
2023/04/12 10:30:53;;;;;;;17.87;17.17;;;12.20;21.40;;;;;;5105615;27;20449;-81
2023/04/12 10:33:26;;;;;;;17.37;16.67;;;12.30;1.00;;;;;;5107327;28;21061;-80
2023/04/12 10:36:01;;;;;;;17.03;16.43;;;12.20;1.00;;;;;;5110510;28;20504;-82
2023/04/12 10:38:44;;;;;;;16.90;16.40;;;12.30;1.00;;;;;;5110014;28;20749;-81
2023/04/12 10:41:19;;;;;;;17.50;17.00;;;12.30;1.00;;;;;;5110450;28;20442;-83
2023/04/12 10:43:49;;;;;;;16.90;16.30;;;12.40;99.90;;;;;;5108826;27;20434;-80
2023/04/12 10:46:49;;;;;;;16.50;15.90;;;12.40;99.90;;;;;;5109770;28;20462;-80
2023/04/12 10:49:18;;;;;;;16.90;16.30;;;12.50;1.00;;;;;;5105357;27;23182;-82
2023/04/12 10:52:12;;;;;;;17.10;16.60;;;12.50;1.00;;;;;;5107353;28;20465;-81
2023/04/12 10:54:42;;;;;;;17.87;17.17;;;12.70;48.30;;;;;;5111130;28;20468;-81
2023/04/12 10:57:40;;;;;;;17.23;16.43;;;12.80;99.90;;;;;;5112468;28;20445;-82
2023/04/12 11:00:10;;;;;;;16.90;16.20;;;12.90;1.00;;;;;;5109375;28;20446;-83
2023/04/12 11:03:08;;;;;;;17.50;16.80;;;13.00;99.90;;;;;;5109775;28;20486;-81
2023/04/12 11:06:00;;;;;;;17.53;16.83;;;12.90;1.00;;;;;;5109269;28;20492;-78
2023/04/12 11:08:47;;;;;;;17.40;16.80;;;13.10;1.00;;;;;;5105384;28;20528;-81
2023/04/12 11:11:21;;;;;;;17.50;16.60;;;13.20;99.90;;;;;;5106606;28;20454;-77
2023/04/12 11:13:55;;;;;;;17.10;16.60;;;13.40;11.00;;;;;;5109627;28;20463;-81
2023/04/12 11:16:24;;;;;;;16.80;16.20;;;13.40;1.00;;;;;;5109269;28;20486;-81
2023/04/12 11:18:54;;;;;;;17.77;17.17;;;13.20;99.90;;;;;;5109520;28;20504;-81
2023/04/12 11:21:24;;;;;;;16.70;16.20;;;13.20;1.00;;;;;;5085226;28;20542;-79
2023/04/12 11:23:55;;;;;;;16.80;16.30;;;13.20;1.00;;;;;;5101123;28;20455;-80
2023/04/12 11:26:24;;;;;;;17.23;16.63;;;13.30;99.90;;;;;;5105132;28;20929;-79
2023/04/12 11:28:54;;;;;;;17.20;16.70;;;13.30;99.90;;;;;;5102193;28;20448;-81
2023/04/12 11:31:23;;;;;;;16.60;16.10;;;13.40;58.10;;;;;;5095475;28;20472;-82
2023/04/12 11:33:51;;;;;;;17.10;16.60;;;13.30;1.00;;;;;;5106486;28;20446;-80
2023/04/12 11:36:19;;;;;;;17.50;16.90;;;13.30;99.90;;;;;;5103474;28;20475;-80
2023/04/12 11:38:49;;;;;;;16.70;16.20;;;13.50;1.00;;;;;;5103839;28;20468;-80
2023/04/12 11:41:17;;;;;;;17.07;16.57;;;13.60;1.00;;;;;;5107648;28;20462;-80
2023/04/12 11:43:48;;;;;;;16.77;16.30;;;13.70;1.00;;;;;;5107168;28;20461;-80
2023/04/12 11:46:17;;;;;;;17.40;16.70;;;13.80;99.90;;;;;;5101456;28;20523;-80
2023/04/12 11:48:46;;;;;;;16.50;16.10;;;13.90;99.90;;;;;;5104031;28;21029;-80
2023/04/12 11:51:23;;;;;;;17.57;16.97;;;14.00;99.90;;;;;;5104222;28;20724;-79
2023/04/12 11:53:57;;;;;;;16.73;16.13;;;13.90;99.90;;;;;;5090249;28;20450;-81
2023/04/12 11:56:26;;;;;;;16.77;16.30;;;14.00;99.90;;;;;;5109493;28;20464;-79
2023/04/12 11:58:55;;;;;;;16.63;16.23;;;14.00;99.90;;;;;;5106593;28;20469;-81
2023/04/12 12:01:24;;;;;;;16.80;16.13;;;13.80;87.40;;;;;;5105303;28;20460;-79
2023/04/12 12:03:52;;;;;;;16.30;15.90;;;13.50;91.70;;;;;;5104168;28;20491;-78
2023/04/12 12:06:21;;;;;;;16.50;16.00;;;13.60;99.90;;;;;;5099623;28;20479;-79
2023/04/12 12:08:51;;;;;;;16.57;16.07;;;13.70;99.90;;;;;;5086168;28;20518;-78
2023/04/12 12:11:20;;;;;;;16.50;16.03;;;13.70;99.90;;;;;;5101533;28;21203;-78
2023/04/12 12:13:50;;;;;;;16.20;15.80;;;13.50;99.90;;;;;;5108145;27;20446;-83
2023/04/12 12:16:25;;;;;;;16.93;16.30;;;13.60;99.90;;;;;;5104183;28;20468;-78
2023/04/12 12:18:54;;;;;;;16.50;16.10;;;13.80;99.90;;;;;;5106836;28;20981;-80
2023/04/12 12:21:22;;;;;;;16.83;16.27;;;13.90;99.90;;;;;;5093217;28;20475;-83
2023/04/12 12:23:51;;;;;;;16.80;16.37;;;13.90;99.90;;;;;;5108075;28;20512;-80
2023/04/12 12:26:21;;;;;;;16.80;16.10;;;13.90;99.90;;;;;;5108889;28;20463;-80
2023/04/12 12:28:51;;;;;;;17.23;16.63;;;13.80;99.90;;;;;;5108226;28;20462;-79
2023/04/12 12:31:22;;;;;;;16.87;16.27;;;13.80;99.90;;;;;;5100179;28;20456;-79
2023/04/12 12:33:55;;;;;;;16.73;16.20;;;13.90;71.40;;;;;;5111482;28;20460;-81
2023/04/12 12:36:31;;;;;;;17.60;16.97;;;14.10;92.80;;;;;;5088708;28;20476;-80
2023/04/12 12:39:05;;;;;;;16.90;16.30;;;14.20;92.50;;;;;;5086526;28;20461;-80
2023/04/12 12:41:34;;;;;;;16.37;15.87;;;14.20;64.90;;;;;;5108070;28;20907;-79
2023/04/12 12:44:02;;;;;;;16.50;16.00;;;14.20;1.00;;;;;;5088826;28;20441;-83
2023/04/12 12:46:31;;;;;;;16.60;16.10;;;14.20;1.00;;;;;;5106156;28;20544;-82
2023/04/12 12:49:19;;;;;;;16.70;16.20;;;14.20;1.00;;;;;;5106858;28;20518;-81